createdAt,value
2023-01-02T00:02:16.336Z,-11.31
2023-01-02T00:07:21.703Z,-11.27
2023-01-02T00:12:30.866Z,-11.29
2023-01-02T00:17:35.336Z,-11.28
2023-01-02T00:22:39.394Z,-11.25
2023-01-02T00:27:47.375Z,-11.21
2023-01-02T00:32:50.771Z,-11.22
2023-01-02T00:38:03.767Z,-11.25
2023-01-02T00:43:08.950Z,-11.22
2023-01-02T00:48:17.160Z,-11.23
2023-01-02T00:53:21.619Z,-11.31
2023-01-02T00:58:25.653Z,-11.35
2023-01-02T01:03:33.896Z,-11.30
2023-01-02T01:08:39.596Z,-11.35
2023-01-02T01:13:46.338Z,-11.34
2023-01-02T01:18:50.363Z,-11.32
2023-01-02T01:23:58.336Z,-11.36
2023-01-02T01:29:02.692Z,-11.38
2023-01-02T01:34:06.601Z,-11.41
2023-01-02T01:39:11.922Z,-11.39
2023-01-02T01:44:46.701Z,-11.39
2023-01-02T01:50:07.539Z,-11.38
2023-01-02T01:55:23.506Z,-11.32
2023-01-02T02:00:32.749Z,-11.29
2023-01-02T02:05:39.478Z,-11.29
2023-01-02T02:10:44.983Z,-11.28
2023-01-02T02:15:55.995Z,-11.25
2023-01-02T02:21:41.114Z,-11.24
2023-01-02T02:27:12.818Z,-11.25
2023-01-02T02:32:26.547Z,-11.26
2023-01-02T02:37:38.719Z,-11.26
2023-01-02T02:42:51.493Z,-11.29
2023-01-02T02:48:04.985Z,-11.59
2023-01-02T02:53:18.845Z,-11.32
2023-01-02T02:58:28.500Z,-11.29
2023-01-02T03:03:34.307Z,-11.27
2023-01-02T03:09:09.720Z,-11.30
2023-01-02T03:14:50.067Z,-11.35
2023-01-02T03:20:01.594Z,-11.35
2023-01-02T03:25:11.158Z,-11.45
2023-01-02T03:30:23.406Z,-11.53
2023-01-02T03:35:39.666Z,-11.58
2023-01-02T03:40:57.602Z,-11.72
2023-01-02T03:46:20.595Z,-11.59
2023-01-02T03:51:24.463Z,-11.64
2023-01-02T03:56:59.468Z,-11.62
2023-01-02T04:02:29.714Z,-11.58
2023-01-02T04:08:00.334Z,-11.63
2023-01-02T04:13:29.903Z,-11.65
2023-01-02T04:18:49.630Z,-11.74
2023-01-02T04:24:14.769Z,-11.75
2023-01-02T04:29:19.683Z,-11.84
2023-01-02T04:34:29.815Z,-11.70
2023-01-02T04:39:37.193Z,-11.70
2023-01-02T04:44:40.928Z,-11.68
2023-01-02T04:49:46.425Z,-11.62
2023-01-02T04:54:50.459Z,-11.65
2023-01-02T04:59:58.582Z,-11.62
2023-01-02T05:05:07.703Z,-11.61
2023-01-02T05:10:18.305Z,-11.56
2023-01-02T05:15:23.379Z,-11.58
2023-01-02T05:20:32.358Z,-11.49
2023-01-02T05:25:38.889Z,-11.44
2023-01-02T05:30:43.539Z,-11.32
2023-01-02T05:35:48.288Z,-11.23
2023-01-02T05:41:05.303Z,-11.09
2023-01-02T05:46:15.967Z,-11.00
2023-01-02T05:51:22.386Z,-11.01
2023-01-02T05:56:28.396Z,-11.04
2023-01-02T06:01:33.577Z,-10.97
2023-01-02T06:06:49.320Z,-10.87
2023-01-02T06:11:54.263Z,-10.73
2023-01-02T06:16:59.729Z,-10.55
2023-01-02T06:22:04.977Z,-10.41
2023-01-02T06:27:08.899Z,-10.38
2023-01-02T06:32:12.755Z,-10.42
2023-01-02T06:37:21.357Z,-10.34
2023-01-02T06:42:33.165Z,-10.33
2023-01-02T06:47:37.617Z,-10.33
2023-01-02T06:52:41.376Z,-10.32
2023-01-02T06:57:48.318Z,-10.31
2023-01-02T07:02:54.313Z,-10.28
2023-01-02T07:08:01.616Z,-10.23
2023-01-02T07:13:09.131Z,-10.25
2023-01-02T07:18:14.175Z,-10.37
2023-01-02T07:23:22.465Z,-10.30
2023-01-02T07:28:28.520Z,-10.35
2023-01-02T07:33:33.792Z,-10.32
2023-01-02T07:38:40.345Z,-10.36
2023-01-02T07:43:45.621Z,-10.30
2023-01-02T07:48:51.065Z,-10.32
2023-01-02T07:53:57.634Z,-10.40
2023-01-02T07:59:07.198Z,-10.37
2023-01-02T08:04:12.619Z,-10.52
2023-01-02T08:09:19.151Z,-10.57
2023-01-02T08:14:23.983Z,-10.46
2023-01-02T08:19:29.778Z,-10.47
2023-01-02T08:24:36.058Z,-10.59
2023-01-02T08:29:41.248Z,-10.59
2023-01-02T08:34:47.791Z,-10.71
2023-01-02T08:39:54.343Z,-10.76
2023-01-02T08:44:58.571Z,-10.67
2023-01-02T08:50:03.088Z,-10.69
2023-01-02T08:55:07.791Z,-10.76
2023-01-02T09:00:12.591Z,-10.92
2023-01-02T09:05:20.323Z,-10.86
2023-01-02T09:10:26.640Z,-10.91
2023-01-02T09:15:32.597Z,-11.01
2023-01-02T09:20:41.409Z,-11.09
2023-01-02T09:25:45.013Z,-11.20
2023-01-02T09:30:50.300Z,-11.26
2023-01-02T09:35:54.135Z,-11.35
2023-01-02T09:41:05.288Z,-11.43
2023-01-02T09:46:23.421Z,-11.55
2023-01-02T09:51:29.793Z,-11.59
2023-01-02T09:56:41.235Z,-11.65
2023-01-02T10:02:11.278Z,-11.68
2023-01-02T10:07:48.651Z,-11.74
2023-01-02T10:13:23.803Z,-11.82
2023-01-02T10:18:43.241Z,-11.91
2023-01-02T10:23:52.709Z,-11.90
2023-01-02T10:29:08.358Z,-11.93
2023-01-02T10:34:19.299Z,-12.07
2023-01-02T10:39:28.895Z,-11.99
2023-01-02T10:44:36.784Z,-11.97
2023-01-02T10:49:45.420Z,-11.94
2023-01-02T10:54:59.903Z,-11.97
2023-01-02T11:00:13.168Z,-12.01
2023-01-02T11:05:32.087Z,-12.07
2023-01-02T11:10:40.352Z,-12.13
2023-01-02T11:16:00.729Z,-12.14
2023-01-02T11:21:07.818Z,-12.21
2023-01-02T11:26:25.154Z,-12.28
2023-01-02T11:31:33.214Z,-12.36
2023-01-02T11:36:42.500Z,-12.43
2023-01-02T11:42:09.963Z,-12.57
2023-01-02T11:47:18.149Z,-12.66
2023-01-02T11:52:34.317Z,-12.80
2023-01-02T11:58:25.472Z,-12.91
2023-01-02T12:03:35.350Z,-13.14
2023-01-02T12:09:09.829Z,-13.25
2023-01-02T12:14:22.667Z,-13.33
2023-01-02T12:20:01.875Z,-13.40
2023-01-02T12:25:53.640Z,-13.41
2023-01-02T12:31:11.027Z,-13.53
2023-01-02T12:36:27.237Z,-13.62
2023-01-02T12:42:01.190Z,-13.61
2023-01-02T12:47:23.249Z,-13.63
2023-01-02T12:52:56.026Z,-13.66
2023-01-02T12:58:05.682Z,-13.63
2023-01-02T13:03:50.450Z,-13.62
2023-01-02T13:09:06.087Z,-13.59
2023-01-02T13:14:22.737Z,-13.47
2023-01-02T13:19:50.332Z,-13.40
2023-01-02T13:25:02.541Z,-13.34
2023-01-02T13:30:12.943Z,-13.30
2023-01-02T13:35:24.484Z,-13.21
2023-01-02T13:40:41.366Z,-13.11
2023-01-02T13:45:58.498Z,-13.27
2023-01-02T13:51:28.835Z,-12.92
2023-01-02T13:56:33.577Z,-12.72
2023-01-02T14:02:06.018Z,-12.59
2023-01-02T14:07:31.478Z,-12.50
2023-01-02T14:13:08.274Z,-12.45
2023-01-02T14:18:12.438Z,-12.41
2023-01-02T14:24:18.537Z,-12.35
2023-01-02T14:29:19.003Z,-12.32
2023-01-02T14:34:27.974Z,-12.21
2023-01-02T14:39:39.511Z,-12.12
2023-01-02T14:45:01.549Z,-12.07
2023-01-02T14:50:18.881Z,-12.02
2023-01-02T14:55:39.441Z,-11.97
2023-01-02T15:00:52.227Z,-11.87
2023-01-02T15:06:09.669Z,-11.77
2023-01-02T15:11:39.467Z,-11.70
2023-01-02T15:16:59.838Z,-11.66
2023-01-02T15:22:19.486Z,-11.60
2023-01-02T15:27:31.593Z,-11.53
2023-01-02T15:32:40.559Z,-11.50
2023-01-02T15:37:50.361Z,-11.67
2023-01-02T15:43:20.848Z,-11.33
2023-01-02T15:48:30.050Z,-11.26
2023-01-02T15:53:42.314Z,-11.29
2023-01-02T15:58:52.449Z,-11.13
2023-01-02T16:04:19.666Z,-11.08
2023-01-02T16:09:31.548Z,-11.06
2023-01-02T16:14:57.179Z,-11.18
2023-01-02T16:20:12.290Z,-11.13
2023-01-02T16:25:22.579Z,-11.18
2023-01-02T16:30:34.033Z,-11.21
2023-01-02T16:35:41.484Z,-11.33
2023-01-02T16:41:00.787Z,-11.38
2023-01-02T16:46:14.548Z,-11.45
2023-01-02T16:51:19.433Z,-11.37
2023-01-02T16:56:24.613Z,-11.35
2023-01-02T17:01:32.426Z,-11.35
2023-01-02T17:06:36.527Z,-11.41
2023-01-02T17:12:00.747Z,-11.31
2023-01-02T17:17:06.244Z,-11.26
2023-01-02T17:22:13.428Z,-11.21
2023-01-02T17:27:18.474Z,-11.18
2023-01-02T17:32:25.357Z,-11.10
2023-01-02T17:37:34.560Z,-11.04
2023-01-02T17:42:43.481Z,-10.98
2023-01-02T17:48:02.675Z,-10.94
2023-01-02T17:53:12.313Z,-10.90
2023-01-02T17:58:20.266Z,-10.85
2023-01-02T18:03:24.279Z,-10.76
2023-01-02T18:08:30.803Z,-10.72
2023-01-02T18:13:44.214Z,-10.66
2023-01-02T18:18:52.187Z,-10.70
2023-01-02T18:24:01.875Z,-10.56
2023-01-02T18:29:18.212Z,-10.51
2023-01-02T18:34:47.690Z,-10.54
2023-01-02T18:40:00.172Z,-10.54
2023-01-02T18:45:15.762Z,-10.47
2023-01-02T18:50:38.722Z,-10.43
2023-01-02T18:55:50.834Z,-10.36
2023-01-02T19:00:57.708Z,-10.37
2023-01-02T19:06:18.558Z,-10.24
2023-01-02T19:11:53.114Z,-10.14
2023-01-02T19:17:06.764Z,-10.06
2023-01-02T19:22:24.996Z,-10.02
2023-01-02T19:27:36.082Z,-9.97
2023-01-02T19:32:40.841Z,-9.95
2023-01-02T19:37:47.409Z,-9.93
2023-01-02T19:42:55.272Z,-9.91
2023-01-02T19:48:00.905Z,-9.94
2023-01-02T19:53:08.451Z,-9.82
2023-01-02T19:58:13.105Z,-9.77
2023-01-02T20:03:17.042Z,-9.70
2023-01-02T20:08:21.568Z,-9.70
2023-01-02T20:13:30.471Z,-9.63
2023-01-02T20:18:35.497Z,-9.65
2023-01-02T20:23:40.274Z,-9.66
2023-01-02T20:28:44.204Z,-9.70
2023-01-02T20:33:49.068Z,-9.71
2023-01-02T20:38:53.608Z,-9.76
2023-01-02T20:43:57.564Z,-10.04
2023-01-02T20:49:02.604Z,-10.01
2023-01-02T20:54:08.014Z,-10.11
2023-01-02T20:59:12.779Z,-10.23
2023-01-02T21:04:22.776Z,-10.37
2023-01-02T21:09:33.306Z,-10.46
2023-01-02T21:14:38.271Z,-10.59
2023-01-02T21:19:44.485Z,-10.70
2023-01-02T21:24:48.394Z,-10.76
2023-01-02T21:30:34.353Z,-10.95
2023-01-02T21:35:38.547Z,-10.95
2023-01-02T21:40:44.070Z,-11.05
2023-01-02T21:45:48.768Z,-11.13
2023-01-02T21:50:55.858Z,-11.12
2023-01-02T21:56:03.230Z,-11.21
2023-01-02T22:01:11.186Z,-11.23
2023-01-02T22:06:15.376Z,-11.41
2023-01-02T22:11:39.768Z,-11.39
2023-01-02T22:16:43.748Z,-11.44
2023-01-02T22:21:51.483Z,-11.50
2023-01-02T22:26:58.242Z,-11.53
2023-01-02T22:32:04.630Z,-11.56
2023-01-02T22:37:08.498Z,-11.61
2023-01-02T22:48:10.045Z,-11.85
2023-01-02T22:53:18.120Z,-11.93
2023-01-02T22:58:22.934Z,-12.01
2023-01-02T23:03:32.413Z,-12.12
2023-01-02T23:08:39.610Z,-12.22
2023-01-02T23:13:48.987Z,-12.39
2023-01-02T23:19:15.715Z,-12.59
2023-01-02T23:24:37.529Z,-12.82
2023-01-02T23:29:44.167Z,-12.89
2023-01-02T23:34:49.613Z,-12.90
2023-01-02T23:39:53.380Z,-12.89
2023-01-02T23:44:57.449Z,-12.99
2023-01-02T23:50:01.997Z,-13.08
2023-01-02T23:55:07.772Z,-13.20
